Time;durP1;ratioP1;P1;durP2;ratioP2;P2;SDS_P1;SDS_P2;PMS_P1;PMS_P2;Temp;Humidity;BMP_temperature;BMP_pressure;BME280_temperature;BME280_humidity;BME280_pressure;Samples;Min_cycle;Max_cycle;Signal;HPM_P1;HPM_P2
2021/07/12 01:15:13;;;;;;;16.27;14.87;;;20.10;99.90;;;;;;3156968;26;20484;-75
2021/07/12 01:18:20;;;;;;;17.30;15.70;;;20.10;99.90;;;;;;5012397;28;20444;-75
2021/07/12 01:21:06;;;;;;;17.70;16.20;;;20.10;99.90;;;;;;5014151;28;20471;-75
2021/07/12 01:23:58;;;;;;;16.17;14.73;;;20.00;99.90;;;;;;5012746;28;20447;-75
2021/07/12 01:27:12;;;;;;;16.98;15.60;;;20.00;99.90;;;;;;5011881;28;20533;-74
2021/07/12 01:29:56;;;;;;;16.93;15.43;;;20.00;99.90;;;;;;5011565;28;20220;-74
2021/07/12 01:33:00;;;;;;;16.87;15.37;;;20.00;99.90;;;;;;5012625;28;20456;-75
2021/07/12 01:35:39;;;;;;;18.00;16.47;;;20.00;99.90;;;;;;4993098;28;20452;-75
2021/07/12 01:38:16;;;;;;;17.33;15.93;;;20.00;99.90;;;;;;4992976;28;20542;-75
2021/07/12 01:41:07;;;;;;;15.63;14.33;;;20.00;99.90;;;;;;4992933;28;20472;-75
2021/07/12 01:43:44;;;;;;;17.83;16.27;;;20.00;99.90;;;;;;4995094;28;20439;-75
2021/07/12 01:46:21;;;;;;;16.97;15.50;;;19.90;99.90;;;;;;5012806;28;20563;-75
2021/07/12 01:49:04;;;;;;;16.53;15.13;;;19.90;99.90;;;;;;5012490;28;20459;-75
2021/07/12 01:51:43;;;;;;;16.63;15.00;;;19.80;99.90;;;;;;5012363;28;20467;-75
2021/07/12 01:54:22;;;;;;;17.57;16.07;;;19.80;99.90;;;;;;5012640;28;20959;-75
2021/07/12 01:56:58;;;;;;;17.20;15.67;;;19.70;99.90;;;;;;5013921;28;20901;-75
2021/07/12 01:59:38;;;;;;;16.83;15.33;;;19.70;99.90;;;;;;5012576;28;20459;-75
2021/07/12 02:02:11;;;;;;;16.50;15.13;;;19.70;99.90;;;;;;5012128;28;21009;-75
2021/07/12 02:04:48;;;;;;;15.60;14.37;;;19.70;99.90;;;;;;5012368;28;20451;-75
2021/07/12 02:07:18;;;;;;;15.00;13.77;;;19.60;99.90;;;;;;5012605;28;20443;-75
2021/07/12 02:09:48;;;;;;;15.57;14.33;;;19.60;99.90;;;;;;5016525;28;21053;-74
2021/07/12 02:12:18;;;;;;;18.53;16.90;;;19.60;99.90;;;;;;5018641;28;20453;-75
2021/07/12 02:14:51;;;;;;;17.53;15.93;;;19.60;99.90;;;;;;5012200;28;21015;-75
2021/07/12 02:17:22;;;;;;;17.90;16.40;;;19.50;99.90;;;;;;5012127;28;20899;-75
2021/07/12 02:20:04;;;;;;;19.42;17.63;;;19.50;99.90;;;;;;5011953;28;20447;-75
2021/07/12 02:22:35;;;;;;;18.37;16.77;;;19.50;99.90;;;;;;5012334;28;20212;-75
2021/07/12 02:25:15;;;;;;;19.70;17.93;;;19.50;99.90;;;;;;5012514;28;20962;-74
2021/07/12 02:27:44;;;;;;;17.73;16.27;;;19.40;99.90;;;;;;5012035;28;20980;-74
2021/07/12 02:30:13;;;;;;;18.80;17.17;;;19.40;99.90;;;;;;5015403;28;20471;-74
2021/07/12 02:32:42;;;;;;;18.70;17.20;;;19.30;99.90;;;;;;5015966;28;20900;-75
2021/07/12 02:35:14;;;;;;;18.60;17.10;;;19.30;99.90;;;;;;5015923;28;20465;-75
2021/07/12 02:37:47;;;;;;;19.53;17.93;;;19.30;99.90;;;;;;5016055;28;20450;-74
2021/07/12 02:40:18;;;;;;;18.33;16.83;;;19.30;99.90;;;;;;5017272;28;20455;-74
2021/07/12 02:42:49;;;;;;;19.10;17.20;;;19.30;99.90;;;;;;5016243;28;20455;-75
2021/07/12 02:45:19;;;;;;;19.90;18.00;;;19.30;99.90;;;;;;5015827;28;20451;-75
2021/07/12 02:47:52;;;;;;;18.03;16.47;;;19.30;99.90;;;;;;4995574;28;20452;-74
2021/07/12 02:50:21;;;;;;;18.53;17.00;;;19.30;99.90;;;;;;4996042;28;20487;-75
2021/07/12 02:52:58;;;;;;;19.00;17.40;;;19.30;99.90;;;;;;4996117;28;20448;-75
2021/07/12 02:55:26;;;;;;;18.97;17.20;;;19.20;99.90;;;;;;5014804;28;20868;-75
2021/07/12 02:57:55;;;;;;;18.17;16.67;;;19.20;99.90;;;;;;5016772;28;20473;-75
2021/07/12 03:00:23;;;;;;;18.60;16.70;;;19.20;99.90;;;;;;5016989;28;20509;-75
2021/07/12 03:02:51;;;;;;;20.30;18.33;;;19.20;99.90;;;;;;5015488;28;20508;-74
2021/07/12 03:05:21;;;;;;;18.10;16.43;;;19.20;99.90;;;;;;5015396;28;20510;-75
2021/07/12 03:08:02;;;;;;;16.97;15.40;;;19.20;99.90;;;;;;5015420;28;20504;-75
2021/07/12 03:10:33;;;;;;;18.77;17.07;;;19.20;99.90;;;;;;5016475;28;20485;-75
2021/07/12 03:13:04;;;;;;;18.53;17.00;;;19.20;99.90;;;;;;5015702;28;21026;-75
2021/07/12 03:15:37;;;;;;;19.40;17.70;;;19.20;99.90;;;;;;5015046;28;20449;-75
2021/07/12 03:18:20;;;;;;;18.23;16.50;;;19.20;99.90;;;;;;5016555;28;20202;-75
2021/07/12 03:20:54;;;;;;;20.10;18.20;;;19.20;99.90;;;;;;5016811;28;20529;-75
2021/07/12 03:23:24;;;;;;;35.97;20.10;;;19.20;99.90;;;;;;5016654;28;20439;-75
2021/07/12 03:25:55;;;;;;;21.70;19.70;;;19.20;99.90;;;;;;5016640;28;20442;-75
2021/07/12 03:28:24;;;;;;;19.47;17.87;;;19.10;99.90;;;;;;5015082;28;20517;-75
2021/07/12 03:30:54;;;;;;;19.73;17.93;;;19.10;99.90;;;;;;5014908;28;20479;-75
2021/07/12 03:33:25;;;;;;;20.47;18.60;;;19.10;99.90;;;;;;5015503;28;20459;-75
2021/07/12 03:35:56;;;;;;;25.03;22.77;;;19.10;99.90;;;;;;5016121;28;20490;-75
2021/07/12 03:38:25;;;;;;;19.93;18.27;;;19.10;99.90;;;;;;5016577;28;20829;-76
2021/07/12 03:40:53;;;;;;;19.57;17.80;;;19.10;99.90;;;;;;5015445;28;20554;-75
2021/07/12 03:43:24;;;;;;;21.07;19.17;;;19.10;99.90;;;;;;5016328;28;20422;-75
2021/07/12 03:45:56;;;;;;;20.90;19.10;;;19.10;99.90;;;;;;5015301;28;20456;-75
2021/07/12 03:48:38;;;;;;;21.53;19.53;;;19.10;99.90;;;;;;5014983;28;21052;-75
2021/07/12 03:51:13;;;;;;;20.10;18.30;;;19.10;99.90;;;;;;5014744;28;20510;-75
2021/07/12 03:53:44;;;;;;;21.97;19.83;;;19.10;99.90;;;;;;5014905;28;20987;-75
2021/07/12 03:56:14;;;;;;;20.33;18.33;;;19.10;99.90;;;;;;5016263;28;20455;-75
2021/07/12 03:58:42;;;;;;;22.13;20.07;;;19.10;99.90;;;;;;5015749;28;20841;-75
2021/07/12 04:01:10;;;;;;;21.27;19.30;;;19.10;99.90;;;;;;5015125;28;20588;-75
2021/07/12 04:03:38;;;;;;;20.87;18.77;;;19.10;99.90;;;;;;5014408;28;20479;-75
2021/07/12 04:06:08;;;;;;;29.40;26.40;;;19.10;99.90;;;;;;5014291;28;20868;-75
2021/07/12 04:08:37;;;;;;;22.50;20.60;;;19.10;99.90;;;;;;5015868;28;20809;-75
2021/07/12 04:11:05;;;;;;;20.97;18.93;;;19.10;99.90;;;;;;5015339;28;20475;-75
2021/07/12 04:13:33;;;;;;;22.10;20.00;;;19.10;99.90;;;;;;5013283;28;20446;-75
2021/07/12 04:16:02;;;;;;;21.37;19.37;;;19.20;99.90;;;;;;5015550;28;20669;-74
2021/07/12 04:18:31;;;;;;;21.90;19.77;;;19.20;99.90;;;;;;5015764;28;20509;-75
2021/07/12 04:20:59;;;;;;;23.27;21.17;;;19.20;99.90;;;;;;5013476;28;20957;-75
2021/07/12 04:23:27;;;;;;;21.00;19.10;;;19.20;99.90;;;;;;5015387;28;20189;-75
2021/07/12 04:25:59;;;;;;;22.27;20.27;;;19.20;99.90;;;;;;5013675;28;20894;-75
2021/07/12 04:28:29;;;;;;;21.73;19.90;;;19.20;99.90;;;;;;5014137;28;20538;-75
2021/07/12 04:30:57;;;;;;;20.90;19.00;;;19.20;99.90;;;;;;5015195;28;21045;-75
2021/07/12 04:33:26;;;;;;;24.43;22.03;;;19.20;99.90;;;;;;5015531;28;20438;-75
2021/07/12 04:35:55;;;;;;;22.57;20.70;;;19.20;99.90;;;;;;5014038;28;21014;-75
2021/07/12 04:38:23;;;;;;;21.20;19.40;;;19.20;99.90;;;;;;5015145;28;20446;-75
2021/07/12 04:40:51;;;;;;;23.37;21.40;;;19.20;99.90;;;;;;5013834;28;20510;-75
2021/07/12 04:43:21;;;;;;;23.33;21.27;;;19.20;99.90;;;;;;5014775;28;20466;-75
2021/07/12 04:45:49;;;;;;;25.70;23.43;;;19.30;99.90;;;;;;5013681;28;20451;-75
2021/07/12 04:48:17;;;;;;;24.50;22.20;;;19.30;99.90;;;;;;5013663;28;20511;-75
2021/07/12 04:50:45;;;;;;;23.63;21.50;;;19.30;99.90;;;;;;5012313;28;20917;-75
2021/07/12 04:53:14;;;;;;;26.40;23.90;;;19.30;99.90;;;;;;5014643;28;20434;-75
2021/07/12 05:04:37;;;;;;;27.73;25.03;;;19.40;99.90;;;;;;5030942;28;20486;-73
2021/07/12 05:07:06;;;;;;;30.60;27.47;;;19.40;99.90;;;;;;5035982;28;20472;-73
2021/07/12 05:09:34;;;;;;;30.60;27.40;;;19.40;99.90;;;;;;5032580;28;20536;-73
2021/07/12 05:12:08;;;;;;;31.23;28.23;;;19.50;99.90;;;;;;5032917;28;20573;-73
2021/07/12 05:14:38;;;;;;;31.67;28.27;;;19.50;99.90;;;;;;5035064;28;20442;-73
2021/07/12 05:17:06;;;;;;;32.67;27.90;;;19.50;99.90;;;;;;5035503;28;20530;-73
2021/07/12 05:19:36;;;;;;;31.27;27.97;;;19.50;99.90;;;;;;5035044;28;20449;-73
2021/07/12 05:22:04;;;;;;;31.93;28.53;;;19.50;99.90;;;;;;5033361;28;20442;-73
2021/07/12 05:24:33;;;;;;;32.50;27.43;;;19.60;99.90;;;;;;5035525;28;20490;-73
2021/07/12 05:27:01;;;;;;;31.47;28.37;;;19.60;99.90;;;;;;5035949;28;20540;-73
2021/07/12 05:29:30;;;;;;;31.53;28.03;;;19.70;99.90;;;;;;5034812;28;20448;-75
2021/07/12 05:31:58;;;;;;;31.70;27.00;;;19.70;99.90;;;;;;5034526;28;20477;-72
2021/07/12 05:34:26;;;;;;;30.20;27.23;;;19.80;99.90;;;;;;5036247;28;20458;-73
2021/07/12 05:36:56;;;;;;;32.50;29.20;;;19.90;99.90;;;;;;5033156;28;20455;-74
2021/07/12 05:39:24;;;;;;;30.60;27.70;;;19.90;99.90;;;;;;5033976;28;20459;-73
2021/07/12 05:41:53;;;;;;;31.50;28.20;;;20.00;99.90;;;;;;5035904;28;20948;-73
2021/07/12 05:44:21;;;;;;;32.53;29.17;;;20.00;99.90;;;;;;5034615;28;20470;-73
2021/07/12 05:46:50;;;;;;;31.07;28.20;;;20.00;99.90;;;;;;5035419;28;20435;-73
2021/07/12 05:49:18;;;;;;;30.93;27.83;;;20.10;99.90;;;;;;5033697;28;20516;-73
2021/07/12 05:51:47;;;;;;;30.00;27.17;;;20.20;99.90;;;;;;5033849;28;20843;-73
2021/07/12 05:54:21;;;;;;;30.57;27.30;;;20.30;99.90;;;;;;5035693;28;20862;-73
2021/07/12 05:56:50;;;;;;;31.37;28.17;;;20.40;99.90;;;;;;5033696;28;20873;-73
2021/07/12 05:59:18;;;;;;;32.67;29.17;;;20.50;99.90;;;;;;5033639;28;20451;-73
2021/07/12 06:01:50;;;;;;;34.20;30.90;;;20.50;99.90;;;;;;5034423;28;20478;-74
2021/07/12 06:04:20;;;;;;;33.17;28.93;;;20.60;99.90;;;;;;5035771;28;20473;-74
2021/07/12 06:06:48;;;;;;;33.78;30.25;;;20.60;99.90;;;;;;5034312;28;20535;-73
2021/07/12 06:09:16;;;;;;;37.23;30.70;;;20.70;99.90;;;;;;5035525;28;20254;-73
2021/07/12 06:11:46;;;;;;;31.57;28.30;;;20.70;99.90;;;;;;5036799;28;20470;-74
2021/07/12 06:14:14;;;;;;;32.27;28.93;;;20.70;99.90;;;;;;5032231;28;20443;-74
2021/07/12 06:16:42;;;;;;;32.97;29.43;;;20.70;99.90;;;;;;5032131;28;20800;-74
2021/07/12 06:19:14;;;;;;;32.87;29.50;;;20.80;99.90;;;;;;5036319;28;20919;-73
2021/07/12 06:21:43;;;;;;;40.03;28.80;;;20.80;99.90;;;;;;5034816;28;20475;-73
2021/07/12 06:24:13;;;;;;;34.50;31.00;;;20.80;99.90;;;;;;5032262;28;20447;-74
2021/07/12 06:26:42;;;;;;;34.27;31.00;;;21.00;99.90;;;;;;5035355;28;20451;-74
2021/07/12 06:29:11;;;;;;;30.90;27.87;;;21.20;99.90;;;;;;5033089;28;20432;-73
2021/07/12 06:31:39;;;;;;;31.43;28.37;;;21.50;99.90;;;;;;5032183;28;20578;-74
2021/07/12 06:34:08;;;;;;;29.57;26.60;;;21.70;99.90;;;;;;5031639;28;20443;-74
2021/07/12 06:36:36;;;;;;;28.97;26.23;;;21.80;99.90;;;;;;5033034;28;20446;-74
2021/07/12 06:39:04;;;;;;;28.37;25.60;;;22.00;99.90;;;;;;5033929;28;20497;-74
2021/07/12 06:41:32;;;;;;;26.30;23.53;;;22.20;99.90;;;;;;5031631;28;20474;-74
2021/07/12 06:44:00;;;;;;;26.70;24.20;;;22.30;99.90;;;;;;5033272;28;20435;-74
2021/07/12 06:46:34;;;;;;;26.73;24.27;;;22.40;99.90;;;;;;5032009;28;20946;-74
2021/07/12 06:49:03;;;;;;;26.03;23.50;;;22.50;99.90;;;;;;5031867;28;20462;-74
2021/07/12 06:51:31;;;;;;;27.43;25.13;;;22.50;99.90;;;;;;5032911;28;20455;-74
2021/07/12 06:54:00;;;;;;;27.13;24.63;;;22.50;99.90;;;;;;5032847;28;20815;-74
2021/07/12 06:56:29;;;;;;;26.03;23.57;;;22.50;99.90;;;;;;5033369;28;20435;-74
2021/07/12 06:58:57;;;;;;;25.07;22.53;;;22.60;99.90;;;;;;5033125;28;20534;-74
2021/07/12 07:01:25;;;;;;;25.00;22.50;;;22.60;99.90;;;;;;5032820;28;20451;-74
2021/07/12 07:03:55;;;;;;;25.60;23.17;;;22.70;99.90;;;;;;5031185;28;20445;-74
2021/07/12 07:06:23;;;;;;;24.43;22.13;;;22.80;99.90;;;;;;5031576;28;20254;-74
2021/07/12 07:08:52;;;;;;;22.83;20.80;;;22.90;99.90;;;;;;5033212;28;20471;-74
2021/07/12 07:11:20;;;;;;;22.03;20.03;;;23.00;99.90;;;;;;5031527;28;20471;-75
2021/07/12 07:13:49;;;;;;;24.80;22.50;;;23.20;99.90;;;;;;5031602;28;20445;-75
2021/07/12 07:16:18;;;;;;;24.27;22.03;;;23.40;99.90;;;;;;5036205;28;20611;-74
2021/07/12 07:18:46;;;;;;;21.77;19.53;;;23.50;99.90;;;;;;5035228;28;20879;-74
2021/07/12 07:21:19;;;;;;;21.03;19.13;;;23.70;99.90;;;;;;5035074;28;20474;-73
2021/07/12 07:23:47;;;;;;;20.93;18.70;;;23.90;99.90;;;;;;5036522;28;20435;-74
2021/07/12 07:26:15;;;;;;;19.27;17.60;;;24.00;99.90;;;;;;5036529;28;20534;-74
2021/07/12 07:28:45;;;;;;;18.50;16.80;;;24.00;99.90;;;;;;5036571;28;20474;-74
2021/07/12 07:31:13;;;;;;;19.27;17.47;;;24.00;99.90;;;;;;5035537;28;20468;-74
2021/07/12 07:33:41;;;;;;;18.97;17.27;;;24.10;99.90;;;;;;5037046;28;20473;-74
2021/07/12 07:36:10;;;;;;;17.77;16.17;;;24.10;99.90;;;;;;5034960;28;20467;-74
2021/07/12 07:38:40;;;;;;;19.27;17.37;;;24.10;99.90;;;;;;5036046;28;20441;-74
2021/07/12 07:41:08;;;;;;;20.57;18.47;;;24.10;99.90;;;;;;5034663;28;20506;-74
2021/07/12 07:43:36;;;;;;;21.43;19.53;;;24.20;99.90;;;;;;5036345;28;20435;-74
2021/07/12 07:46:05;;;;;;;17.47;15.80;;;24.30;99.90;;;;;;5035777;28;20431;-73
2021/07/12 07:48:34;;;;;;;16.93;15.47;;;24.40;99.90;;;;;;5034592;28;20447;-74
2021/07/12 07:51:02;;;;;;;18.47;16.57;;;24.60;99.90;;;;;;5036395;28;20801;-75
2021/07/12 07:53:30;;;;;;;16.73;15.23;;;24.70;99.90;;;;;;5034561;28;20471;-74
2021/07/12 07:56:00;;;;;;;15.70;14.30;;;24.70;99.90;;;;;;5034489;28;20870;-75
2021/07/12 07:58:28;;;;;;;15.57;14.13;;;24.90;99.90;;;;;;5034463;28;20292;-74
2021/07/12 08:00:56;;;;;;;18.73;16.77;;;24.80;99.90;;;;;;5034173;28;20463;-74
2021/07/12 08:03:24;;;;;;;20.00;18.13;;;24.90;99.90;;;;;;5034206;28;20463;-74
2021/07/12 08:05:52;;;;;;;22.60;20.60;;;24.90;99.90;;;;;;5034386;28;20864;-74
2021/07/12 08:08:20;;;;;;;22.97;20.87;;;25.10;99.90;;;;;;5034580;28;20212;-74
2021/07/12 08:10:48;;;;;;;21.17;19.30;;;25.10;99.90;;;;;;5034250;28;20555;-74
2021/07/12 08:13:18;;;;;;;23.63;21.37;;;25.20;99.90;;;;;;5035836;28;20506;-74
2021/07/12 08:16:06;;;;;;;22.57;20.57;;;25.10;99.90;;;;;;5034552;28;20432;-74
2021/07/12 08:18:35;;;;;;;19.70;17.90;;;25.20;99.90;;;;;;5034512;28;20443;-74
2021/07/12 08:21:04;;;;;;;18.57;16.83;;;25.20;99.90;;;;;;5034693;28;20571;-74
2021/07/12 08:23:32;;;;;;;15.90;14.60;;;25.30;99.90;;;;;;5034463;28;20454;-74
2021/07/12 08:26:01;;;;;;;22.13;20.03;;;25.40;99.90;;;;;;5034207;28;20451;-73
2021/07/12 08:28:30;;;;;;;14.30;13.00;;;25.50;99.90;;;;;;5035544;28;20439;-74
2021/07/12 08:30:58;;;;;;;14.37;12.80;;;25.60;99.90;;;;;;5035628;28;20447;-74
2021/07/12 08:33:26;;;;;;;15.37;13.97;;;25.60;99.90;;;;;;5033995;28;20497;-74
2021/07/12 08:35:55;;;;;;;13.60;12.30;;;25.70;99.90;;;;;;5035372;28;20482;-74
2021/07/12 08:38:23;;;;;;;11.93;10.93;;;25.70;99.90;;;;;;5035633;28;20931;-74
2021/07/12 08:40:54;;;;;;;10.37;9.47;;;25.70;99.90;;;;;;5035480;28;20466;-74
2021/07/12 08:43:23;;;;;;;12.03;11.03;;;25.70;99.90;;;;;;5035639;28;20511;-73
2021/07/12 08:45:52;;;;;;;12.17;11.17;;;25.70;99.90;;;;;;5035569;28;20526;-74
2021/07/12 08:48:21;;;;;;;12.40;11.40;;;25.70;99.90;;;;;;5034801;28;20488;-74
2021/07/12 08:50:49;;;;;;;9.50;8.70;;;25.80;99.90;;;;;;5035211;28;20252;-74
2021/07/12 08:53:19;;;;;;;10.37;9.57;;;25.80;99.90;;;;;;5035181;28;20564;-74
2021/07/12 08:55:48;;;;;;;8.77;7.97;;;25.90;99.90;;;;;;5034286;28;20998;-74
2021/07/12 08:58:22;;;;;;;10.75;9.85;;;26.00;99.90;;;;;;5034649;28;21009;-74
2021/07/12 09:00:53;;;;;;;10.50;9.60;;;26.20;99.90;;;;;;5035285;28;20311;-73
2021/07/12 09:03:27;;;;;;;7.70;7.10;;;26.30;99.90;;;;;;5033598;28;20456;-73
2021/07/12 09:06:05;;;;;;;7.63;6.70;;;26.30;99.90;;;;;;5033613;28;20524;-73
2021/07/12 09:08:35;;;;;;;7.73;7.13;;;26.40;99.90;;;;;;5033795;28;20449;-74
2021/07/12 09:11:09;;;;;;;8.53;7.73;;;26.50;99.90;;;;;;5033457;28;20495;-73
2021/07/12 09:13:53;;;;;;;9.23;7.97;;;26.50;99.90;;;;;;5034892;28;20495;-74
2021/07/12 09:16:41;;;;;;;10.70;9.80;;;26.50;99.90;;;;;;5034220;28;20447;-74
2021/07/12 09:19:22;;;;;;;9.00;8.20;;;26.50;99.90;;;;;;5033248;28;20833;-73
2021/07/12 09:21:54;;;;;;;12.93;11.83;;;26.50;99.90;;;;;;5034544;28;20416;-73
2021/07/12 09:24:26;;;;;;;14.13;12.90;;;26.60;99.90;;;;;;5033120;28;20518;-73
2021/07/12 09:26:57;;;;;;;15.37;13.87;;;26.60;99.90;;;;;;5034531;28;20452;-74
2021/07/12 09:29:29;;;;;;;15.40;14.00;;;26.60;99.90;;;;;;5033050;28;20443;-74
2021/07/12 09:32:00;;;;;;;15.68;14.38;;;26.60;99.90;;;;;;5034555;28;20440;-74
2021/07/12 09:34:28;;;;;;;15.30;13.80;;;26.50;99.90;;;;;;5034892;28;20232;-74
2021/07/12 09:36:57;;;;;;;14.70;13.27;;;26.50;99.90;;;;;;5032972;28;20505;-74
2021/07/12 09:39:37;;;;;;;13.63;12.07;;;26.40;99.90;;;;;;5034057;28;20993;-73
2021/07/12 09:42:08;;;;;;;13.23;12.13;;;26.30;99.90;;;;;;5032634;28;20439;-74
2021/07/12 09:44:38;;;;;;;14.03;12.70;;;26.30;99.90;;;;;;5034619;28;20470;-74
2021/07/12 09:47:15;;;;;;;15.20;13.47;;;26.40;99.90;;;;;;5032410;28;20534;-74
2021/07/12 09:49:45;;;;;;;13.93;12.67;;;26.40;99.90;;;;;;5033930;28;20546;-74
2021/07/12 09:52:15;;;;;;;12.87;11.80;;;26.50;99.90;;;;;;5034123;28;20811;-74
2021/07/12 09:54:44;;;;;;;13.30;12.30;;;26.50;99.90;;;;;;5032368;28;20482;-74
2021/07/12 09:57:14;;;;;;;13.63;12.43;;;26.60;99.90;;;;;;5032185;28;20816;-74
2021/07/12 09:59:54;;;;;;;12.27;11.17;;;26.60;99.90;;;;;;5033475;28;20462;-74
2021/07/12 10:02:25;;;;;;;13.03;12.03;;;26.70;99.90;;;;;;5033605;28;20415;-74
2021/07/12 10:04:58;;;;;;;12.50;11.60;;;26.90;99.90;;;;;;5033846;28;20416;-74
2021/07/12 10:07:27;;;;;;;11.90;10.90;;;26.90;99.90;;;;;;5032187;28;20444;-74
2021/07/12 10:09:57;;;;;;;11.00;10.10;;;26.90;99.90;;;;;;5033750;28;20485;-74
2021/07/12 10:12:25;;;;;;;10.60;9.77;;;26.90;99.90;;;;;;5033637;28;20952;-74
2021/07/12 10:14:54;;;;;;;10.85;10.05;;;26.90;99.90;;;;;;5033243;28;20445;-74
2021/07/12 10:17:25;;;;;;;10.80;9.90;;;26.90;99.90;;;;;;5033410;28;20280;-74
2021/07/12 10:19:56;;;;;;;9.60;8.80;;;27.00;99.90;;;;;;5032290;28;20562;-74
2021/07/12 10:22:26;;;;;;;9.57;8.73;;;26.90;99.90;;;;;;5031969;28;20442;-74
2021/07/12 10:25:04;;;;;;;10.18;9.38;;;27.00;99.90;;;;;;5032498;28;20446;-74
2021/07/12 10:27:33;;;;;;;10.03;9.27;;;27.10;99.90;;;;;;5033400;28;20176;-74
2021/07/12 10:30:22;;;;;;;9.60;8.90;;;27.10;99.90;;;;;;5031959;28;20554;-74
2021/07/12 10:32:55;;;;;;;10.00;9.30;;;27.20;99.90;;;;;;5033170;28;20501;-74
2021/07/12 10:35:52;;;;;;;9.47;8.77;;;27.20;99.90;;;;;;5033542;28;20463;-74
2021/07/12 10:38:26;;;;;;;10.33;9.53;;;27.20;99.90;;;;;;4999076;28;20463;-74
2021/07/12 10:40:55;;;;;;;9.97;9.27;;;27.20;99.90;;;;;;5032591;28;21004;-74
2021/07/12 10:43:45;;;;;;;9.83;9.03;;;27.10;99.90;;;;;;5032992;28;20510;-74
2021/07/12 10:46:39;;;;;;;10.23;9.43;;;27.10;99.90;;;;;;5032751;28;20499;-74
2021/07/12 10:49:40;;;;;;;8.27;7.67;;;27.00;99.90;;;;;;5031577;28;20513;-74
2021/07/12 10:52:44;;;;;;;9.57;8.87;;;27.00;99.90;;;;;;5036825;28;20445;-74
2021/07/12 10:55:13;;;;;;;9.37;8.67;;;27.00;99.90;;;;;;5036253;28;20803;-74
2021/07/12 10:57:41;;;;;;;8.60;7.90;;;27.00;99.90;;;;;;5035223;28;20487;-73
2021/07/12 11:00:11;;;;;;;8.43;7.83;;;27.00;99.90;;;;;;5036797;28;20538;-73
2021/07/12 11:02:41;;;;;;;7.60;7.10;;;27.00;99.90;;;;;;5037038;28;20558;-74
2021/07/12 11:05:15;;;;;;;7.17;6.67;;;27.10;99.90;;;;;;5036891;28;20416;-74
2021/07/12 11:07:46;;;;;;;7.90;7.30;;;27.20;99.90;;;;;;5037100;28;20705;-74
2021/07/12 11:19:24;;;;;;;8.20;7.70;;;27.20;99.90;;;;;;5016111;28;20828;-76
2021/07/12 11:21:53;;;;;;;8.10;7.57;;;27.30;99.90;;;;;;5016568;28;20476;-76
2021/07/12 11:24:23;;;;;;;7.67;6.97;;;27.30;99.90;;;;;;5017826;28;20432;-76
2021/07/12 11:26:54;;;;;;;7.77;7.17;;;27.40;99.90;;;;;;5017330;28;20425;-76
2021/07/12 11:29:38;;;;;;;7.70;7.15;;;27.40;99.90;;;;;;4998714;28;20453;-77
2021/07/12 11:32:14;;;;;;;7.70;7.20;;;27.50;99.90;;;;;;5016903;28;20273;-76
2021/07/12 11:34:54;;;;;;;7.30;6.80;;;27.50;99.90;;;;;;5016347;28;20499;-77
2021/07/12 11:37:25;;;;;;;8.00;7.40;;;27.40;99.90;;;;;;5021073;28;20424;-77
2021/07/12 11:39:57;;;;;;;8.37;7.77;;;27.40;99.90;;;;;;5021143;28;20798;-77
2021/07/12 11:42:29;;;;;;;7.70;7.20;;;27.40;99.90;;;;;;5018242;28;20460;-77
2021/07/12 11:45:04;;;;;;;8.80;8.20;;;27.30;99.90;;;;;;5016724;28;20537;-77
2021/07/12 11:47:34;;;;;;;7.97;7.47;;;27.30;99.90;;;;;;4998501;28;20534;-76
2021/07/12 11:50:07;;;;;;;8.47;7.73;;;27.30;99.90;;;;;;5000776;28;20485;-76
2021/07/12 11:52:37;;;;;;;9.40;8.80;;;27.40;99.90;;;;;;4998466;28;20444;-76
2021/07/12 11:55:10;;;;;;;7.97;7.43;;;27.50;99.90;;;;;;4998965;28;21048;-76
2021/07/12 11:57:45;;;;;;;8.57;8.00;;;27.50;99.90;;;;;;5003930;28;20448;-76
2021/07/12 12:00:17;;;;;;;7.90;7.30;;;27.50;99.90;;;;;;4998225;28;20476;-77
2021/07/12 12:02:46;;;;;;;7.93;7.43;;;27.60;99.90;;;;;;5018416;28;20471;-76
2021/07/12 12:05:15;;;;;;;8.00;7.50;;;27.60;99.90;;;;;;5015252;28;20439;-77
2021/07/12 12:07:45;;;;;;;8.10;7.50;;;27.70;99.90;;;;;;4998307;28;20224;-77
2021/07/12 12:10:20;;;;;;;8.13;7.63;;;27.80;99.90;;;;;;5021412;28;20801;-76
2021/07/12 12:12:50;;;;;;;8.38;7.78;;;27.80;99.90;;;;;;5015271;28;20435;-76
2021/07/12 12:15:23;;;;;;;8.33;7.80;;;27.90;99.90;;;;;;5000206;28;20213;-77
2021/07/12 12:17:55;;;;;;;7.63;7.17;;;27.80;99.90;;;;;;5002230;28;20456;-77
2021/07/12 12:20:26;;;;;;;8.13;7.53;;;27.90;99.90;;;;;;4998005;28;20472;-77
2021/07/12 12:23:07;;;;;;;9.00;8.40;;;27.80;99.90;;;;;;4999050;28;20448;-77
2021/07/12 12:25:47;;;;;;;8.40;7.90;;;27.80;99.90;;;;;;5015910;28;20456;-76
2021/07/12 12:28:27;;;;;;;8.60;8.00;;;27.80;99.90;;;;;;5016163;28;20507;-76
2021/07/12 12:31:02;;;;;;;8.80;8.10;;;27.90;99.90;;;;;;4999154;28;20908;-76
2021/07/12 12:33:33;;;;;;;9.30;8.60;;;28.00;99.90;;;;;;5015577;28;20429;-77
2021/07/12 12:36:04;;;;;;;8.37;7.73;;;28.10;99.90;;;;;;4998617;28;20511;-76
2021/07/12 12:38:33;;;;;;;9.20;8.60;;;28.10;99.90;;;;;;4997610;28;20463;-76
2021/07/12 12:41:10;;;;;;;8.30;7.70;;;28.20;99.90;;;;;;4998850;28;20512;-76
2021/07/12 12:43:39;;;;;;;8.90;8.30;;;28.30;99.90;;;;;;4999106;28;20440;-76
2021/07/12 12:46:07;;;;;;;8.03;7.43;;;28.40;99.90;;;;;;5014987;28;20500;-76
2021/07/12 12:48:40;;;;;;;8.77;8.18;;;28.40;99.90;;;;;;5014075;28;20441;-76
2021/07/12 12:51:29;;;;;;;9.90;9.20;;;28.50;99.90;;;;;;5015253;28;20205;-76
2021/07/12 12:54:12;;;;;;;8.90;8.30;;;28.50;99.90;;;;;;4997461;28;20436;-76
2021/07/12 12:56:49;;;;;;;9.17;8.50;;;28.50;99.90;;;;;;4997229;28;20559;-76
2021/07/12 12:59:18;;;;;;;8.70;8.10;;;28.40;99.90;;;;;;4997077;28;20955;-76
2021/07/12 13:01:47;;;;;;;9.07;8.40;;;28.40;99.90;;;;;;5014881;28;20456;-76
2021/07/12 13:04:17;;;;;;;8.63;8.10;;;28.30;99.90;;;;;;5014717;28;20472;-76
2021/07/12 13:06:52;;;;;;;8.90;8.20;;;28.30;99.90;;;;;;5015203;28;20436;-76
2021/07/12 13:09:28;;;;;;;8.60;8.00;;;28.30;99.90;;;;;;5014907;28;20431;-77
2021/07/12 13:12:10;;;;;;;9.80;9.10;;;28.20;99.90;;;;;;4996571;28;20474;-76
2021/07/12 13:14:39;;;;;;;8.87;8.27;;;28.20;99.90;;;;;;4997199;28;20465;-76
2021/07/12 13:17:09;;;;;;;8.63;8.13;;;28.20;99.90;;;;;;5014754;28;20984;-76
2021/07/12 13:19:38;;;;;;;8.67;8.17;;;28.20;99.90;;;;;;5014703;28;20435;-75
2021/07/12 13:22:19;;;;;;;9.10;8.47;;;28.10;99.90;;;;;;5014428;28;20443;-76
2021/07/12 13:24:50;;;;;;;9.20;8.60;;;28.00;99.90;;;;;;5014626;28;20427;-76
2021/07/12 13:27:24;;;;;;;8.27;7.67;;;28.00;99.80;;;;;;5015083;28;20449;-75
2021/07/12 13:29:53;;;;;;;8.50;8.00;;;28.10;99.80;;;;;;5014561;28;20550;-76
2021/07/12 13:32:21;;;;;;;8.20;7.60;;;28.10;99.80;;;;;;5014224;28;20428;-76
2021/07/12 13:34:55;;;;;;;9.10;8.50;;;28.10;99.70;;;;;;4996695;28;20879;-76
2021/07/12 13:37:25;;;;;;;7.90;7.40;;;28.20;99.70;;;;;;5014350;28;21074;-77
2021/07/12 13:39:55;;;;;;;8.90;8.30;;;28.30;99.70;;;;;;5014365;28;20495;-76
2021/07/12 13:42:25;;;;;;;9.40;8.63;;;28.30;99.50;;;;;;5014534;28;20953;-76
2021/07/12 13:44:54;;;;;;;8.20;7.63;;;28.40;99.40;;;;;;5014535;28;20803;-76
2021/07/12 13:47:22;;;;;;;8.52;7.93;;;28.40;99.40;;;;;;4995369;28;20450;-75
2021/07/12 13:49:50;;;;;;;8.20;7.70;;;28.50;99.30;;;;;;5014141;28;20221;-76
2021/07/12 13:52:19;;;;;;;9.03;8.23;;;28.50;99.20;;;;;;5014281;28;20917;-76
2021/07/12 13:54:49;;;;;;;9.30;8.70;;;28.50;99.20;;;;;;5014125;28;20463;-76
2021/07/12 13:57:18;;;;;;;10.40;9.70;;;28.60;99.10;;;;;;5014034;28;20212;-76
2021/07/12 13:59:47;;;;;;;9.47;8.87;;;28.60;99.10;;;;;;5014108;28;20543;-76
2021/07/12 14:02:17;;;;;;;8.30;7.80;;;28.50;99.00;;;;;;5014140;28;20788;-77
2021/07/12 14:04:47;;;;;;;8.43;7.90;;;28.50;99.00;;;;;;5014000;28;20425;-76
2021/07/12 14:07:16;;;;;;;8.67;8.13;;;28.40;99.00;;;;;;4996016;28;20436;-77
2021/07/12 14:09:45;;;;;;;8.70;7.90;;;28.40;98.90;;;;;;5013766;28;20452;-77
2021/07/12 14:12:14;;;;;;;7.93;7.33;;;28.30;98.90;;;;;;5013623;28;21049;-77
2021/07/12 14:14:44;;;;;;;9.30;8.60;;;28.30;98.90;;;;;;5013558;28;20548;-77
2021/07/12 14:17:14;;;;;;;13.43;10.13;;;28.30;98.80;;;;;;4995841;28;20529;-77
2021/07/12 14:19:43;;;;;;;8.07;7.57;;;28.30;98.80;;;;;;5013286;28;20458;-77
2021/07/12 14:22:12;;;;;;;8.93;8.33;;;28.40;98.60;;;;;;5013540;28;20519;-77
2021/07/12 14:24:40;;;;;;;9.20;8.60;;;28.40;98.60;;;;;;5013404;28;20471;-77
2021/07/12 14:27:09;;;;;;;9.20;8.60;;;28.40;99.00;;;;;;5013549;28;20441;-77
2021/07/12 14:29:37;;;;;;;9.57;8.40;;;28.50;98.50;;;;;;4996024;28;20289;-77